sensor_id;sensor_type;location;lat;lon;timestamp;pressure;altitude;pressure_sealevel;temperature;humidity
55592;BME280;41454;53.396;-1.510;2023-01-10T00:01:07;99526.33;;;2.53;100.00
55592;BME280;41454;53.396;-1.510;2023-01-10T00:03:34;99525.03;;;2.55;100.00
55592;BME280;41454;53.396;-1.510;2023-01-10T00:06:02;99524.08;;;2.56;100.00
55592;BME280;41454;53.396;-1.510;2023-01-10T00:08:29;99521.93;;;2.32;100.00
55592;BME280;41454;53.396;-1.510;2023-01-10T00:10:56;99519.63;;;1.73;100.00
55592;BME280;41454;53.396;-1.510;2023-01-10T00:13:23;99516.79;;;1.96;100.00
55592;BME280;41454;53.396;-1.510;2023-01-10T00:15:52;99514.17;;;2.21;100.00
55592;BME280;41454;53.396;-1.510;2023-01-10T00:18:20;99513.24;;;2.02;100.00
55592;BME280;41454;53.396;-1.510;2023-01-10T00:20:47;99510.12;;;2.28;100.00
55592;BME280;41454;53.396;-1.510;2023-01-10T00:23:15;99510.83;;;1.81;100.00
55592;BME280;41454;53.396;-1.510;2023-01-10T00:25:42;99522.66;;;1.86;100.00
55592;BME280;41454;53.396;-1.510;2023-01-10T00:28:09;99544.78;;;1.70;100.00
55592;BME280;41454;53.396;-1.510;2023-01-10T00:30:37;99540.24;;;2.06;100.00
55592;BME280;41454;53.396;-1.510;2023-01-10T00:33:04;99545.33;;;2.21;100.00
55592;BME280;41454;53.396;-1.510;2023-01-10T00:35:32;99554.85;;;2.71;100.00
55592;BME280;41454;53.396;-1.510;2023-01-10T00:37:59;99555.21;;;3.03;100.00
55592;BME280;41454;53.396;-1.510;2023-01-10T00:40:27;99542.85;;;3.25;100.00
55592;BME280;41454;53.396;-1.510;2023-01-10T00:42:53;99540.23;;;3.07;100.00
55592;BME280;41454;53.396;-1.510;2023-01-10T00:45:22;99553.68;;;3.82;100.00
55592;BME280;41454;53.396;-1.510;2023-01-10T00:47:50;99552.96;;;3.40;100.00
55592;BME280;41454;53.396;-1.510;2023-01-10T00:50:17;99555.07;;;3.13;100.00
55592;BME280;41454;53.396;-1.510;2023-01-10T00:52:44;99555.06;;;3.19;100.00
55592;BME280;41454;53.396;-1.510;2023-01-10T00:55:12;99550.49;;;3.05;100.00
55592;BME280;41454;53.396;-1.510;2023-01-10T00:57:39;99558.18;;;3.17;100.00
55592;BME280;41454;53.396;-1.510;2023-01-10T01:00:07;99569.23;;;2.92;100.00
55592;BME280;41454;53.396;-1.510;2023-01-10T01:02:35;99570.81;;;3.07;100.00
55592;BME280;41454;53.396;-1.510;2023-01-10T01:05:03;99568.25;;;2.48;100.00
55592;BME280;41454;53.396;-1.510;2023-01-10T01:07:30;99559.33;;;2.51;100.00
55592;BME280;41454;53.396;-1.510;2023-01-10T01:09:57;99559.11;;;2.41;100.00
55592;BME280;41454;53.396;-1.510;2023-01-10T01:12:24;99549.83;;;2.58;100.00
55592;BME280;41454;53.396;-1.510;2023-01-10T01:14:52;99545.74;;;2.44;100.00
55592;BME280;41454;53.396;-1.510;2023-01-10T01:17:19;99528.96;;;2.11;100.00
55592;BME280;41454;53.396;-1.510;2023-01-10T01:19:46;99512.06;;;2.32;100.00
55592;BME280;41454;53.396;-1.510;2023-01-10T01:22:13;99510.34;;;2.27;100.00
55592;BME280;41454;53.396;-1.510;2023-01-10T01:24:41;99507.06;;;2.22;100.00
55592;BME280;41454;53.396;-1.510;2023-01-10T01:27:08;99509.05;;;2.51;100.00
55592;BME280;41454;53.396;-1.510;2023-01-10T01:29:36;99515.18;;;1.80;100.00
55592;BME280;41454;53.396;-1.510;2023-01-10T01:32:03;99519.35;;;2.43;100.00
55592;BME280;41454;53.396;-1.510;2023-01-10T01:34:31;99531.53;;;2.55;100.00
55592;BME280;41454;53.396;-1.510;2023-01-10T01:36:58;99524.72;;;2.15;100.00
55592;BME280;41454;53.396;-1.510;2023-01-10T01:39:26;99538.18;;;2.08;100.00
55592;BME280;41454;53.396;-1.510;2023-01-10T01:41:52;99551.20;;;1.48;100.00
55592;BME280;41454;53.396;-1.510;2023-01-10T01:44:20;99568.27;;;2.23;100.00
55592;BME280;41454;53.396;-1.510;2023-01-10T01:46:51;99563.52;;;2.23;100.00
55592;BME280;41454;53.396;-1.510;2023-01-10T01:49:22;99557.21;;;2.47;100.00
55592;BME280;41454;53.396;-1.510;2023-01-10T01:51:55;99556.16;;;2.64;100.00
55592;BME280;41454;53.396;-1.510;2023-01-10T01:54:25;99564.36;;;2.16;100.00
55592;BME280;41454;53.396;-1.510;2023-01-10T01:56:56;99566.87;;;1.83;100.00
55592;BME280;41454;53.396;-1.510;2023-01-10T01:59:27;99562.61;;;2.25;100.00
55592;BME280;41454;53.396;-1.510;2023-01-10T02:01:59;99565.13;;;2.02;100.00
55592;BME280;41454;53.396;-1.510;2023-01-10T02:04:30;99570.14;;;1.88;100.00
55592;BME280;41454;53.396;-1.510;2023-01-10T02:06:58;99573.07;;;1.50;100.00
55592;BME280;41454;53.396;-1.510;2023-01-10T02:09:30;99558.71;;;1.76;100.00
55592;BME280;41454;53.396;-1.510;2023-01-10T02:12:00;99546.78;;;1.67;100.00
55592;BME280;41454;53.396;-1.510;2023-01-10T02:14:30;99543.73;;;1.91;100.00
55592;BME280;41454;53.396;-1.510;2023-01-10T02:16:57;99534.27;;;2.25;100.00
55592;BME280;41454;53.396;-1.510;2023-01-10T02:19:28;99536.11;;;2.73;100.00
55592;BME280;41454;53.396;-1.510;2023-01-10T02:22:16;99543.03;;;2.67;100.00
55592;BME280;41454;53.396;-1.510;2023-01-10T02:25:08;99533.38;;;2.95;100.00
55592;BME280;41454;53.396;-1.510;2023-01-10T02:27:53;99535.41;;;3.35;100.00
55592;BME280;41454;53.396;-1.510;2023-01-10T02:30:44;99534.51;;;3.45;100.00
55592;BME280;41454;53.396;-1.510;2023-01-10T02:33:17;99541.62;;;3.39;100.00
55592;BME280;41454;53.396;-1.510;2023-01-10T02:36:12;99539.22;;;4.22;100.00
55592;BME280;41454;53.396;-1.510;2023-01-10T02:38:50;99543.18;;;3.44;100.00
55592;BME280;41454;53.396;-1.510;2023-01-10T02:41:29;99548.49;;;3.43;100.00
55592;BME280;41454;53.396;-1.510;2023-01-10T02:44:04;99552.12;;;3.09;100.00
55592;BME280;41454;53.396;-1.510;2023-01-10T02:46:33;99553.71;;;2.94;100.00
55592;BME280;41454;53.396;-1.510;2023-01-10T02:49:01;99536.69;;;2.46;100.00
55592;BME280;41454;53.396;-1.510;2023-01-10T02:51:29;99532.46;;;2.74;100.00
55592;BME280;41454;53.396;-1.510;2023-01-10T02:53:58;99531.46;;;2.43;100.00
55592;BME280;41454;53.396;-1.510;2023-01-10T02:56:56;99538.71;;;2.58;100.00
55592;BME280;41454;53.396;-1.510;2023-01-10T02:59:41;99540.04;;;2.68;100.00
55592;BME280;41454;53.396;-1.510;2023-01-10T03:02:22;99543.08;;;2.41;100.00
55592;BME280;41454;53.396;-1.510;2023-01-10T03:05:01;99543.17;;;2.94;100.00
55592;BME280;41454;53.396;-1.510;2023-01-10T03:07:36;99540.63;;;2.87;100.00
55592;BME280;41454;53.396;-1.510;2023-01-10T03:10:07;99536.32;;;3.20;100.00
55592;BME280;41454;53.396;-1.510;2023-01-10T03:12:43;99538.08;;;2.97;100.00
55592;BME280;41454;53.396;-1.510;2023-01-10T03:15:15;99540.34;;;2.81;100.00
55592;BME280;41454;53.396;-1.510;2023-01-10T03:17:46;99533.93;;;3.06;100.00
55592;BME280;41454;53.396;-1.510;2023-01-10T03:20:16;99537.14;;;2.95;100.00
55592;BME280;41454;53.396;-1.510;2023-01-10T03:22:46;99541.17;;;3.17;100.00
55592;BME280;41454;53.396;-1.510;2023-01-10T03:25:15;99535.57;;;2.90;100.00
55592;BME280;41454;53.396;-1.510;2023-01-10T03:27:49;99527.07;;;2.95;100.00
55592;BME280;41454;53.396;-1.510;2023-01-10T03:30:23;99536.04;;;3.00;100.00
55592;BME280;41454;53.396;-1.510;2023-01-10T03:32:54;99540.65;;;2.52;100.00
55592;BME280;41454;53.396;-1.510;2023-01-10T03:35:31;99540.11;;;2.84;100.00
55592;BME280;41454;53.396;-1.510;2023-01-10T03:38:05;99532.85;;;2.93;100.00
55592;BME280;41454;53.396;-1.510;2023-01-10T03:40:42;99535.46;;;3.11;100.00
55592;BME280;41454;53.396;-1.510;2023-01-10T03:43:18;99528.84;;;2.87;100.00
55592;BME280;41454;53.396;-1.510;2023-01-10T03:45:53;99542.07;;;2.73;100.00
55592;BME280;41454;53.396;-1.510;2023-01-10T03:48:27;99544.00;;;2.09;100.00
55592;BME280;41454;53.396;-1.510;2023-01-10T03:50:56;99533.76;;;2.41;100.00
55592;BME280;41454;53.396;-1.510;2023-01-10T03:53:25;99547.02;;;2.82;100.00
55592;BME280;41454;53.396;-1.510;2023-01-10T03:55:52;99542.30;;;2.75;100.00
55592;BME280;41454;53.396;-1.510;2023-01-10T03:58:19;99538.14;;;3.45;100.00
55592;BME280;41454;53.396;-1.510;2023-01-10T04:00:47;99531.08;;;3.28;100.00
55592;BME280;41454;53.396;-1.510;2023-01-10T04:03:15;99527.93;;;2.83;100.00
55592;BME280;41454;53.396;-1.510;2023-01-10T04:05:42;99523.32;;;2.66;100.00
55592;BME280;41454;53.396;-1.510;2023-01-10T04:08:09;99519.98;;;2.54;100.00
55592;BME280;41454;53.396;-1.510;2023-01-10T04:10:36;99513.05;;;2.55;100.00
55592;BME280;41454;53.396;-1.510;2023-01-10T04:13:04;99513.52;;;2.72;100.00
55592;BME280;41454;53.396;-1.510;2023-01-10T04:15:31;99517.53;;;2.39;100.00
55592;BME280;41454;53.396;-1.510;2023-01-10T04:17:59;99519.69;;;2.80;100.00
55592;BME280;41454;53.396;-1.510;2023-01-10T04:20:25;99515.16;;;3.00;100.00
55592;BME280;41454;53.396;-1.510;2023-01-10T04:22:53;99509.40;;;2.31;100.00
55592;BME280;41454;53.396;-1.510;2023-01-10T04:25:21;99506.69;;;2.77;100.00
55592;BME280;41454;53.396;-1.510;2023-01-10T04:27:48;99504.32;;;3.38;100.00
55592;BME280;41454;53.396;-1.510;2023-01-10T04:30:16;99510.51;;;3.28;100.00
55592;BME280;41454;53.396;-1.510;2023-01-10T04:32:43;99509.72;;;3.04;100.00
55592;BME280;41454;53.396;-1.510;2023-01-10T04:35:10;99496.59;;;2.76;100.00
55592;BME280;41454;53.396;-1.510;2023-01-10T04:37:38;99494.32;;;2.70;100.00
55592;BME280;41454;53.396;-1.510;2023-01-10T04:40:07;99503.47;;;2.60;100.00
55592;BME280;41454;53.396;-1.510;2023-01-10T04:42:34;99500.66;;;2.53;100.00
55592;BME280;41454;53.396;-1.510;2023-01-10T04:45:01;99494.09;;;2.90;100.00
55592;BME280;41454;53.396;-1.510;2023-01-10T04:47:28;99492.70;;;2.54;100.00
55592;BME280;41454;53.396;-1.510;2023-01-10T04:49:56;99493.94;;;2.56;100.00
55592;BME280;41454;53.396;-1.510;2023-01-10T04:52:23;99491.37;;;2.60;100.00
55592;BME280;41454;53.396;-1.510;2023-01-10T04:54:50;99487.95;;;2.48;100.00
55592;BME280;41454;53.396;-1.510;2023-01-10T04:57:17;99481.12;;;2.65;100.00
55592;BME280;41454;53.396;-1.510;2023-01-10T04:59:44;99483.14;;;2.66;100.00
55592;BME280;41454;53.396;-1.510;2023-01-10T05:02:11;99483.43;;;2.18;100.00
55592;BME280;41454;53.396;-1.510;2023-01-10T05:04:38;99484.42;;;2.46;100.00
55592;BME280;41454;53.396;-1.510;2023-01-10T05:07:05;99483.99;;;2.22;100.00
55592;BME280;41454;53.396;-1.510;2023-01-10T05:09:32;99472.11;;;2.64;100.00
55592;BME280;41454;53.396;-1.510;2023-01-10T05:11:59;99469.03;;;2.94;100.00
55592;BME280;41454;53.396;-1.510;2023-01-10T05:14:25;99461.78;;;3.02;100.00
55592;BME280;41454;53.396;-1.510;2023-01-10T05:16:53;99462.02;;;3.10;100.00
55592;BME280;41454;53.396;-1.510;2023-01-10T05:19:20;99463.77;;;3.41;100.00
55592;BME280;41454;53.396;-1.510;2023-01-10T05:21:47;99458.60;;;3.00;100.00
55592;BME280;41454;53.396;-1.510;2023-01-10T05:24:14;99449.29;;;3.60;100.00
55592;BME280;41454;53.396;-1.510;2023-01-10T05:26:41;99446.67;;;3.70;100.00
55592;BME280;41454;53.396;-1.510;2023-01-10T05:29:09;99442.49;;;3.36;100.00
55592;BME280;41454;53.396;-1.510;2023-01-10T05:31:36;99433.45;;;3.47;100.00
55592;BME280;41454;53.396;-1.510;2023-01-10T05:34:03;99426.13;;;3.52;100.00
55592;BME280;41454;53.396;-1.510;2023-01-10T05:36:31;99425.36;;;3.69;100.00
55592;BME280;41454;53.396;-1.510;2023-01-10T05:38:59;99424.18;;;3.26;100.00
55592;BME280;41454;53.396;-1.510;2023-01-10T05:41:26;99423.77;;;2.86;100.00
55592;BME280;41454;53.396;-1.510;2023-01-10T05:43:53;99421.51;;;2.75;100.00
55592;BME280;41454;53.396;-1.510;2023-01-10T05:46:20;99424.67;;;2.69;100.00
55592;BME280;41454;53.396;-1.510;2023-01-10T05:48:47;99423.65;;;2.95;100.00
55592;BME280;41454;53.396;-1.510;2023-01-10T05:51:15;99418.11;;;2.58;100.00
55592;BME280;41454;53.396;-1.510;2023-01-10T05:53:42;99406.14;;;2.77;100.00
55592;BME280;41454;53.396;-1.510;2023-01-10T05:56:09;99400.53;;;2.84;100.00
55592;BME280;41454;53.396;-1.510;2023-01-10T05:58:36;99394.42;;;3.69;100.00
55592;BME280;41454;53.396;-1.510;2023-01-10T06:01:04;99391.85;;;2.88;100.00
55592;BME280;41454;53.396;-1.510;2023-01-10T06:03:31;99388.59;;;2.95;100.00
55592;BME280;41454;53.396;-1.510;2023-01-10T06:05:57;99385.15;;;2.78;100.00
55592;BME280;41454;53.396;-1.510;2023-01-10T06:08:24;99379.37;;;2.22;100.00
55592;BME280;41454;53.396;-1.510;2023-01-10T06:10:52;99376.76;;;2.53;100.00
55592;BME280;41454;53.396;-1.510;2023-01-10T06:13:20;99371.10;;;2.55;100.00
55592;BME280;41454;53.396;-1.510;2023-01-10T06:15:47;99369.62;;;2.72;100.00
55592;BME280;41454;53.396;-1.510;2023-01-10T06:18:14;99363.18;;;2.66;100.00
55592;BME280;41454;53.396;-1.510;2023-01-10T06:20:43;99367.18;;;2.49;100.00
55592;BME280;41454;53.396;-1.510;2023-01-10T06:23:10;99376.07;;;2.15;100.00
55592;BME280;41454;53.396;-1.510;2023-01-10T06:25:38;99372.87;;;1.89;100.00
55592;BME280;41454;53.396;-1.510;2023-01-10T06:28:05;99365.11;;;1.78;100.00
55592;BME280;41454;53.396;-1.510;2023-01-10T06:30:33;99362.06;;;1.46;100.00
55592;BME280;41454;53.396;-1.510;2023-01-10T06:33:01;99359.89;;;1.40;100.00
55592;BME280;41454;53.396;-1.510;2023-01-10T06:35:29;99363.58;;;1.71;100.00
55592;BME280;41454;53.396;-1.510;2023-01-10T06:37:57;99357.81;;;1.42;100.00
55592;BME280;41454;53.396;-1.510;2023-01-10T06:40:25;99350.77;;;1.97;100.00
55592;BME280;41454;53.396;-1.510;2023-01-10T06:42:53;99338.12;;;1.28;100.00
55592;BME280;41454;53.396;-1.510;2023-01-10T06:45:20;99341.50;;;1.72;100.00
55592;BME280;41454;53.396;-1.510;2023-01-10T06:47:47;99331.05;;;2.03;100.00
55592;BME280;41454;53.396;-1.510;2023-01-10T06:50:14;99327.27;;;1.74;100.00
55592;BME280;41454;53.396;-1.510;2023-01-10T06:52:42;99323.03;;;2.14;100.00
55592;BME280;41454;53.396;-1.510;2023-01-10T06:55:09;99321.48;;;1.66;100.00
55592;BME280;41454;53.396;-1.510;2023-01-10T06:57:36;99318.09;;;1.83;100.00
55592;BME280;41454;53.396;-1.510;2023-01-10T07:00:06;99311.71;;;1.80;100.00
55592;BME280;41454;53.396;-1.510;2023-01-10T07:02:34;99305.00;;;1.94;100.00
55592;BME280;41454;53.396;-1.510;2023-01-10T07:05:01;99302.63;;;1.61;100.00
55592;BME280;41454;53.396;-1.510;2023-01-10T07:07:29;99287.49;;;1.86;100.00
55592;BME280;41454;53.396;-1.510;2023-01-10T07:09:56;99284.14;;;1.64;100.00
55592;BME280;41454;53.396;-1.510;2023-01-10T07:12:24;99276.19;;;1.70;100.00
55592;BME280;41454;53.396;-1.510;2023-01-10T07:14:52;99266.28;;;2.14;100.00
55592;BME280;41454;53.396;-1.510;2023-01-10T07:17:24;99271.36;;;0.98;100.00
55592;BME280;41454;53.396;-1.510;2023-01-10T07:19:51;99253.64;;;1.35;100.00
55592;BME280;41454;53.396;-1.510;2023-01-10T07:22:36;99259.92;;;0.34;100.00
55592;BME280;41454;53.396;-1.510;2023-01-10T07:25:03;99255.10;;;0.79;100.00
55592;BME280;41454;53.396;-1.510;2023-01-10T07:27:30;99244.50;;;0.99;100.00
55592;BME280;41454;53.396;-1.510;2023-01-10T07:29:58;99243.16;;;1.63;100.00
55592;BME280;41454;53.396;-1.510;2023-01-10T07:32:25;99236.30;;;1.93;100.00
55592;BME280;41454;53.396;-1.510;2023-01-10T07:34:53;99235.27;;;1.70;100.00
55592;BME280;41454;53.396;-1.510;2023-01-10T07:37:19;99226.64;;;1.78;100.00
55592;BME280;41454;53.396;-1.510;2023-01-10T07:39:46;99236.53;;;1.42;100.00
55592;BME280;41454;53.396;-1.510;2023-01-10T07:42:13;99228.95;;;1.45;100.00
55592;BME280;41454;53.396;-1.510;2023-01-10T07:44:39;99231.57;;;1.57;100.00
55592;BME280;41454;53.396;-1.510;2023-01-10T07:47:06;99225.39;;;1.42;100.00
55592;BME280;41454;53.396;-1.510;2023-01-10T07:49:33;99224.44;;;1.71;100.00
55592;BME280;41454;53.396;-1.510;2023-01-10T07:52:00;99225.31;;;1.18;100.00
55592;BME280;41454;53.396;-1.510;2023-01-10T07:54:28;99217.67;;;1.47;100.00
55592;BME280;41454;53.396;-1.510;2023-01-10T07:56:54;99207.20;;;1.37;100.00
55592;BME280;41454;53.396;-1.510;2023-01-10T07:59:21;99202.22;;;1.86;100.00
55592;BME280;41454;53.396;-1.510;2023-01-10T08:01:48;99193.75;;;1.40;100.00
55592;BME280;41454;53.396;-1.510;2023-01-10T08:04:14;99179.27;;;1.35;100.00
55592;BME280;41454;53.396;-1.510;2023-01-10T08:06:41;99174.55;;;1.95;100.00
55592;BME280;41454;53.396;-1.510;2023-01-10T08:09:08;99165.57;;;2.25;100.00
55592;BME280;41454;53.396;-1.510;2023-01-10T08:11:36;99153.50;;;1.37;100.00
55592;BME280;41454;53.396;-1.510;2023-01-10T08:14:03;99140.90;;;1.26;100.00
55592;BME280;41454;53.396;-1.510;2023-01-10T08:16:30;99122.90;;;1.71;100.00
55592;BME280;41454;53.396;-1.510;2023-01-10T08:18:57;99118.59;;;2.00;100.00
55592;BME280;41454;53.396;-1.510;2023-01-10T08:21:24;99105.91;;;1.80;100.00
55592;BME280;41454;53.396;-1.510;2023-01-10T08:23:53;99102.74;;;1.38;100.00
55592;BME280;41454;53.396;-1.510;2023-01-10T08:26:20;99087.41;;;1.57;100.00
55592;BME280;41454;53.396;-1.510;2023-01-10T08:28:47;99076.69;;;2.08;100.00
55592;BME280;41454;53.396;-1.510;2023-01-10T08:31:14;99056.28;;;1.73;100.00
55592;BME280;41454;53.396;-1.510;2023-01-10T08:33:42;99052.73;;;2.02;100.00
55592;BME280;41454;53.396;-1.510;2023-01-10T08:36:18;99040.00;;;1.95;100.00
55592;BME280;41454;53.396;-1.510;2023-01-10T08:38:46;99028.62;;;2.48;100.00
55592;BME280;41454;53.396;-1.510;2023-01-10T08:41:13;99022.38;;;2.01;100.00
55592;BME280;41454;53.396;-1.510;2023-01-10T08:43:41;99006.29;;;2.83;100.00
55592;BME280;41454;53.396;-1.510;2023-01-10T08:46:08;99000.76;;;1.84;100.00
55592;BME280;41454;53.396;-1.510;2023-01-10T08:48:35;98991.90;;;2.54;100.00
55592;BME280;41454;53.396;-1.510;2023-01-10T08:51:07;98982.90;;;2.07;100.00
55592;BME280;41454;53.396;-1.510;2023-01-10T08:53:34;98982.69;;;1.70;100.00
55592;BME280;41454;53.396;-1.510;2023-01-10T08:56:03;98969.98;;;1.71;100.00
55592;BME280;41454;53.396;-1.510;2023-01-10T08:58:30;98964.50;;;1.69;100.00
55592;BME280;41454;53.396;-1.510;2023-01-10T09:00:58;98953.74;;;1.35;100.00
55592;BME280;41454;53.396;-1.510;2023-01-10T09:03:25;98938.79;;;1.56;100.00
55592;BME280;41454;53.396;-1.510;2023-01-10T09:05:52;98928.64;;;1.20;100.00
55592;BME280;41454;53.396;-1.510;2023-01-10T09:08:19;98914.93;;;1.64;100.00
55592;BME280;41454;53.396;-1.510;2023-01-10T09:10:45;98909.44;;;1.42;100.00
55592;BME280;41454;53.396;-1.510;2023-01-10T09:13:12;98905.40;;;1.17;100.00
55592;BME280;41454;53.396;-1.510;2023-01-10T09:15:41;98901.85;;;1.79;100.00
55592;BME280;41454;53.396;-1.510;2023-01-10T09:18:11;98895.27;;;2.07;100.00
55592;BME280;41454;53.396;-1.510;2023-01-10T09:20:40;98889.00;;;2.67;100.00
55592;BME280;41454;53.396;-1.510;2023-01-10T09:23:09;98878.49;;;2.21;100.00
55592;BME280;41454;53.396;-1.510;2023-01-10T09:25:37;98874.77;;;1.72;100.00
55592;BME280;41454;53.396;-1.510;2023-01-10T09:28:05;98872.83;;;1.32;100.00
55592;BME280;41454;53.396;-1.510;2023-01-10T09:30:32;98871.86;;;1.60;100.00
55592;BME280;41454;53.396;-1.510;2023-01-10T09:33:00;98857.63;;;1.74;100.00
55592;BME280;41454;53.396;-1.510;2023-01-10T09:35:29;98846.20;;;2.07;100.00
55592;BME280;41454;53.396;-1.510;2023-01-10T09:37:58;98830.67;;;2.39;100.00
55592;BME280;41454;53.396;-1.510;2023-01-10T09:40:37;98835.30;;;2.07;100.00
55592;BME280;41454;53.396;-1.510;2023-01-10T09:43:12;98838.22;;;2.16;100.00
55592;BME280;41454;53.396;-1.510;2023-01-10T09:45:49;98833.07;;;1.93;100.00
55592;BME280;41454;53.396;-1.510;2023-01-10T09:48:24;98818.46;;;2.33;100.00
55592;BME280;41454;53.396;-1.510;2023-01-10T09:51:15;98826.21;;;2.80;100.00
55592;BME280;41454;53.396;-1.510;2023-01-10T09:53:45;98814.02;;;2.92;100.00
55592;BME280;41454;53.396;-1.510;2023-01-10T09:56:15;98800.62;;;3.03;100.00
55592;BME280;41454;53.396;-1.510;2023-01-10T09:58:44;98789.11;;;3.37;100.00
55592;BME280;41454;53.396;-1.510;2023-01-10T10:01:15;98772.49;;;3.21;100.00
55592;BME280;41454;53.396;-1.510;2023-01-10T10:03:47;98767.76;;;3.68;100.00
55592;BME280;41454;53.396;-1.510;2023-01-10T10:06:21;98763.00;;;3.71;100.00
55592;BME280;41454;53.396;-1.510;2023-01-10T10:08:49;98760.69;;;3.35;100.00
55592;BME280;41454;53.396;-1.510;2023-01-10T10:11:35;98757.92;;;3.65;100.00
55592;BME280;41454;53.396;-1.510;2023-01-10T10:14:10;98748.71;;;3.16;100.00
55592;BME280;41454;53.396;-1.510;2023-01-10T10:17:02;98739.51;;;3.11;100.00
55592;BME280;41454;53.396;-1.510;2023-01-10T10:19:47;98723.06;;;3.63;100.00
55592;BME280;41454;53.396;-1.510;2023-01-10T10:22:24;98712.86;;;3.92;100.00
55592;BME280;41454;53.396;-1.510;2023-01-10T10:25:02;98702.82;;;4.12;100.00
55592;BME280;41454;53.396;-1.510;2023-01-10T10:27:40;98691.59;;;3.44;100.00
55592;BME280;41454;53.396;-1.510;2023-01-10T10:30:24;98690.44;;;3.78;100.00
55592;BME280;41454;53.396;-1.510;2023-01-10T10:33:08;98676.11;;;3.44;100.00
55592;BME280;41454;53.396;-1.510;2023-01-10T10:35:44;98679.96;;;3.88;100.00
55592;BME280;41454;53.396;-1.510;2023-01-10T10:38:18;98679.15;;;3.78;100.00
55592;BME280;41454;53.396;-1.510;2023-01-10T10:40:46;98659.26;;;3.57;100.00
55592;BME280;41454;53.396;-1.510;2023-01-10T10:43:17;98656.23;;;3.24;100.00
55592;BME280;41454;53.396;-1.510;2023-01-10T10:45:48;98644.03;;;3.24;100.00
55592;BME280;41454;53.396;-1.510;2023-01-10T10:48:20;98645.86;;;3.33;100.00
55592;BME280;41454;53.396;-1.510;2023-01-10T10:50:56;98641.59;;;3.59;100.00
55592;BME280;41454;53.396;-1.510;2023-01-10T10:53:25;98631.33;;;3.65;100.00
55592;BME280;41454;53.396;-1.510;2023-01-10T10:55:53;98635.18;;;3.96;100.00
55592;BME280;41454;53.396;-1.510;2023-01-10T10:58:21;98634.18;;;3.87;100.00
55592;BME280;41454;53.396;-1.510;2023-01-10T11:00:49;98628.23;;;3.68;100.00
55592;BME280;41454;53.396;-1.510;2023-01-10T11:03:29;98627.95;;;3.23;100.00
55592;BME280;41454;53.396;-1.510;2023-01-10T11:05:59;98629.92;;;3.93;100.00
55592;BME280;41454;53.396;-1.510;2023-01-10T11:08:28;98624.50;;;4.02;100.00
55592;BME280;41454;53.396;-1.510;2023-01-10T11:11:03;98610.30;;;3.68;100.00
55592;BME280;41454;53.396;-1.510;2023-01-10T11:13:42;98607.44;;;3.81;100.00
55592;BME280;41454;53.396;-1.510;2023-01-10T11:16:24;98608.16;;;3.67;100.00
55592;BME280;41454;53.396;-1.510;2023-01-10T11:19:10;98603.36;;;3.83;100.00
55592;BME280;41454;53.396;-1.510;2023-01-10T11:21:39;98594.97;;;3.93;100.00
55592;BME280;41454;53.396;-1.510;2023-01-10T11:24:19;98573.33;;;3.40;100.00
55592;BME280;41454;53.396;-1.510;2023-01-10T11:26:47;98574.95;;;4.05;100.00
55592;BME280;41454;53.396;-1.510;2023-01-10T11:29:16;98558.67;;;4.12;100.00
55592;BME280;41454;53.396;-1.510;2023-01-10T11:31:44;98552.65;;;4.06;100.00
55592;BME280;41454;53.396;-1.510;2023-01-10T11:34:21;98551.72;;;4.26;100.00
55592;BME280;41454;53.396;-1.510;2023-01-10T11:36:54;98542.79;;;3.96;100.00
55592;BME280;41454;53.396;-1.510;2023-01-10T11:39:22;98544.55;;;4.14;100.00
55592;BME280;41454;53.396;-1.510;2023-01-10T11:41:49;98528.77;;;4.31;100.00
55592;BME280;41454;53.396;-1.510;2023-01-10T11:44:21;98500.49;;;4.10;100.00
55592;BME280;41454;53.396;-1.510;2023-01-10T11:46:49;98501.36;;;4.13;100.00
55592;BME280;41454;53.396;-1.510;2023-01-10T11:49:24;98484.99;;;4.30;100.00
55592;BME280;41454;53.396;-1.510;2023-01-10T11:51:56;98471.04;;;4.17;100.00
55592;BME280;41454;53.396;-1.510;2023-01-10T11:54:26;98464.53;;;4.31;100.00
55592;BME280;41454;53.396;-1.510;2023-01-10T11:56:57;98474.73;;;4.21;100.00
55592;BME280;41454;53.396;-1.510;2023-01-10T11:59:26;98453.43;;;4.65;100.00
55592;BME280;41454;53.396;-1.510;2023-01-10T12:01:57;98440.92;;;4.49;100.00
55592;BME280;41454;53.396;-1.510;2023-01-10T12:04:27;98419.87;;;4.51;100.00
55592;BME280;41454;53.396;-1.510;2023-01-10T12:06:58;98421.42;;;4.45;100.00
55592;BME280;41454;53.396;-1.510;2023-01-10T12:09:37;98418.56;;;4.79;100.00
55592;BME280;41454;53.396;-1.510;2023-01-10T12:12:13;98397.67;;;5.07;100.00
55592;BME280;41454;53.396;-1.510;2023-01-10T12:14:41;98398.06;;;4.69;100.00
55592;BME280;41454;53.396;-1.510;2023-01-10T12:17:13;98396.84;;;4.63;100.00
55592;BME280;41454;53.396;-1.510;2023-01-10T12:19:46;98383.99;;;4.98;100.00
55592;BME280;41454;53.396;-1.510;2023-01-10T12:22:14;98383.36;;;4.96;100.00
55592;BME280;41454;53.396;-1.510;2023-01-10T12:24:43;98380.25;;;5.11;100.00
55592;BME280;41454;53.396;-1.510;2023-01-10T12:27:14;98369.64;;;5.12;100.00
55592;BME280;41454;53.396;-1.510;2023-01-10T12:29:46;98363.64;;;5.12;100.00
55592;BME280;41454;53.396;-1.510;2023-01-10T12:32:22;98352.18;;;5.04;100.00
55592;BME280;41454;53.396;-1.510;2023-01-10T12:34:55;98345.12;;;5.10;100.00
55592;BME280;41454;53.396;-1.510;2023-01-10T12:37:29;98340.21;;;5.45;100.00
55592;BME280;41454;53.396;-1.510;2023-01-10T12:40:04;98340.97;;;5.53;100.00
55592;BME280;41454;53.396;-1.510;2023-01-10T12:42:46;98346.37;;;5.29;100.00
55592;BME280;41454;53.396;-1.510;2023-01-10T12:45:19;98338.21;;;5.66;100.00
55592;BME280;41454;53.396;-1.510;2023-01-10T12:47:56;98333.63;;;5.72;100.00
55592;BME280;41454;53.396;-1.510;2023-01-10T12:50:28;98325.18;;;5.79;100.00
55592;BME280;41454;53.396;-1.510;2023-01-10T12:52:59;98316.71;;;5.90;100.00
55592;BME280;41454;53.396;-1.510;2023-01-10T12:55:33;98324.34;;;5.79;100.00
55592;BME280;41454;53.396;-1.510;2023-01-10T12:58:03;98314.92;;;6.18;100.00
55592;BME280;41454;53.396;-1.510;2023-01-10T13:00:34;98304.83;;;6.39;100.00
55592;BME280;41454;53.396;-1.510;2023-01-10T13:03:09;98303.65;;;6.05;100.00
55592;BME280;41454;53.396;-1.510;2023-01-10T13:05:37;98301.39;;;6.09;100.00